createdAt,value
2022-09-13T00:01:28.157Z,10.32
2022-09-13T00:03:56.994Z,10.32
2022-09-13T00:06:25.872Z,10.35
2022-09-13T00:08:55.051Z,10.35
2022-09-13T00:11:25.940Z,10.46
2022-09-13T00:13:55.134Z,10.54
2022-09-13T00:16:28.323Z,10.60
2022-09-13T00:18:57.980Z,10.61
2022-09-13T00:21:27.940Z,10.62
2022-09-13T00:23:56.870Z,10.61
2022-09-13T00:26:28.205Z,10.63
2022-09-13T00:28:58.755Z,10.60
2022-09-13T00:31:29.975Z,10.59
2022-09-13T00:34:00.811Z,10.53
2022-09-13T00:36:30.107Z,10.48
2022-09-13T00:38:58.725Z,10.42
2022-09-13T00:41:27.009Z,10.35
2022-09-13T00:43:57.272Z,10.18
2022-09-13T00:46:35.379Z,10.06
2022-09-13T00:49:13.020Z,9.92
2022-09-13T00:51:46.934Z,9.85
2022-09-13T00:54:18.789Z,9.74
2022-09-13T00:56:50.569Z,9.65
2022-09-13T00:59:25.223Z,9.57
2022-09-13T01:01:57.645Z,9.55
2022-09-13T01:04:30.190Z,9.52
2022-09-13T01:07:02.187Z,9.50
2022-09-13T01:09:31.664Z,9.47
2022-09-13T01:12:08.461Z,9.46
2022-09-13T01:14:38.568Z,9.48
2022-09-13T01:17:09.952Z,9.50
2022-09-13T01:19:38.590Z,9.53
2022-09-13T01:22:45.621Z,9.44
2022-09-13T01:25:39.875Z,9.31
2022-09-13T01:28:23.613Z,9.20
2022-09-13T01:31:01.439Z,9.15
2022-09-13T01:33:46.781Z,9.09
2022-09-13T01:36:47.885Z,9.00
2022-09-13T01:39:22.178Z,8.94
2022-09-13T01:42:04.010Z,8.85
2022-09-13T01:44:47.642Z,8.89
2022-09-13T01:47:25.978Z,8.91
2022-09-13T01:50:05.988Z,8.87
2022-09-13T01:52:44.010Z,8.86
2022-09-13T01:55:19.340Z,8.87
2022-09-13T01:57:52.710Z,8.89
2022-09-13T02:00:21.085Z,8.91
2022-09-13T02:02:55.894Z,8.96
2022-09-13T02:05:33.581Z,9.00
2022-09-13T02:08:05.857Z,9.01
2022-09-13T02:10:36.613Z,8.98
2022-09-13T02:13:07.675Z,8.96
2022-09-13T02:15:41.611Z,8.94
2022-09-13T02:18:17.411Z,8.89
2022-09-13T02:20:48.954Z,8.89
2022-09-13T02:23:20.002Z,8.95
2022-09-13T02:25:52.067Z,9.00
2022-09-13T02:28:25.323Z,9.01
2022-09-13T02:30:56.033Z,8.98
2022-09-13T02:33:30.427Z,8.99
2022-09-13T02:36:02.903Z,8.97
2022-09-13T02:38:34.647Z,8.99
2022-09-13T02:41:12.970Z,8.98
2022-09-13T02:43:46.360Z,9.01
2022-09-13T02:46:26.161Z,9.07
2022-09-13T02:49:02.380Z,9.09
2022-09-13T02:51:41.017Z,9.08
2022-09-13T02:54:22.938Z,9.07
2022-09-13T02:56:55.542Z,9.07
2022-09-13T02:59:25.633Z,9.09
2022-09-13T03:01:58.346Z,9.05
2022-09-13T03:04:28.620Z,9.02
2022-09-13T03:06:58.203Z,9.03
2022-09-13T03:09:27.103Z,8.98
2022-09-13T03:12:16.560Z,8.92
2022-09-13T03:14:52.663Z,8.94
2022-09-13T03:17:40.174Z,8.97
2022-09-13T03:20:13.754Z,8.99
2022-09-13T03:23:12.262Z,9.00
2022-09-13T03:25:58.119Z,8.97
2022-09-13T03:28:35.764Z,8.95
2022-09-13T03:31:09.853Z,9.01
2022-09-13T03:33:48.301Z,9.02
2022-09-13T03:36:23.570Z,8.99
2022-09-13T03:38:58.712Z,8.98
2022-09-13T03:41:32.967Z,8.98
2022-09-13T03:44:05.099Z,8.99
2022-09-13T03:46:38.835Z,8.98
2022-09-13T03:49:10.374Z,9.02
2022-09-13T03:51:41.250Z,8.99
2022-09-13T03:54:16.191Z,9.00
2022-09-13T03:56:44.922Z,9.04
2022-09-13T03:59:13.236Z,9.07
2022-09-13T04:01:42.014Z,9.06
2022-09-13T04:04:11.201Z,9.07
2022-09-13T04:06:41.633Z,9.08
2022-09-13T04:09:10.142Z,9.03
2022-09-13T04:11:40.729Z,9.00
2022-09-13T04:14:09.149Z,8.99
2022-09-13T04:16:38.791Z,8.93
2022-09-13T04:19:07.502Z,8.89
2022-09-13T04:21:36.603Z,8.86
2022-09-13T04:24:06.689Z,8.81
2022-09-13T04:26:36.175Z,8.80
2022-09-13T04:29:05.522Z,8.76
2022-09-13T04:31:34.097Z,8.70
2022-09-13T04:34:03.382Z,8.71
2022-09-13T04:36:32.323Z,8.80
2022-09-13T04:39:03.039Z,8.73
2022-09-13T04:41:34.875Z,8.64
2022-09-13T04:44:04.457Z,8.58
2022-09-13T04:46:33.495Z,8.64
2022-09-13T04:49:02.304Z,8.70
2022-09-13T04:51:31.281Z,8.71
2022-09-13T04:54:00.572Z,8.67
2022-09-13T04:56:29.203Z,8.62
2022-09-13T04:58:59.040Z,8.62
2022-09-13T05:01:28.129Z,8.62
2022-09-13T05:03:57.197Z,8.58
2022-09-13T05:06:26.548Z,8.69
2022-09-13T05:08:56.850Z,8.72
2022-09-13T05:11:26.779Z,8.79
2022-09-13T05:14:00.070Z,8.80
2022-09-13T05:16:32.692Z,8.81
2022-09-13T05:19:01.741Z,8.83
2022-09-13T05:21:31.451Z,8.86
2022-09-13T05:24:00.960Z,8.89
2022-09-13T05:26:31.569Z,8.91
2022-09-13T05:29:02.368Z,8.90
2022-09-13T05:31:34.723Z,8.91
2022-09-13T05:34:06.335Z,8.87
2022-09-13T05:36:37.926Z,8.83
2022-09-13T05:41:56.310Z,8.85
2022-09-13T05:44:25.239Z,8.88
2022-09-13T05:46:55.807Z,8.93
2022-09-13T05:49:24.151Z,8.95
2022-09-13T05:51:52.633Z,9.02
2022-09-13T05:54:21.215Z,9.03
2022-09-13T05:56:52.617Z,9.10
2022-09-13T05:59:21.163Z,9.17
2022-09-13T06:01:50.239Z,9.23
2022-09-13T06:04:20.537Z,9.30
2022-09-13T06:06:48.930Z,9.33
2022-09-13T06:09:18.826Z,9.38
2022-09-13T06:11:47.506Z,9.44
2022-09-13T06:14:16.702Z,9.46
2022-09-13T06:16:45.250Z,9.51
2022-09-13T06:19:13.616Z,9.60
2022-09-13T06:21:43.772Z,9.70
2022-09-13T06:24:12.462Z,9.83
2022-09-13T06:26:40.953Z,9.99
2022-09-13T06:29:13.134Z,10.07
2022-09-13T06:31:44.898Z,10.14
2022-09-13T06:34:16.309Z,10.21
2022-09-13T06:36:46.684Z,10.32
2022-09-13T06:39:16.004Z,10.57
2022-09-13T06:41:44.789Z,10.71
2022-09-13T06:44:13.395Z,10.83
2022-09-13T06:46:42.138Z,10.92
2022-09-13T06:49:12.077Z,11.09
2022-09-13T06:51:40.593Z,11.20
2022-09-13T06:54:10.699Z,11.32
2022-09-13T06:56:40.354Z,11.43
2022-09-13T06:59:11.255Z,11.55
2022-09-13T07:01:41.602Z,11.72
2022-09-13T07:04:12.670Z,11.86
2022-09-13T07:06:42.829Z,12.06
2022-09-13T07:09:17.314Z,12.19
2022-09-13T07:11:47.423Z,12.31
2022-09-13T07:14:17.469Z,12.53
2022-09-13T07:16:47.557Z,12.74
2022-09-13T07:19:18.350Z,13.04
2022-09-13T07:21:47.443Z,13.13
2022-09-13T07:24:18.061Z,13.20
2022-09-13T07:26:47.154Z,13.26
2022-09-13T07:29:19.232Z,13.36
2022-09-13T07:31:50.018Z,13.49
2022-09-13T07:34:20.786Z,13.63
2022-09-13T07:36:50.517Z,13.81
2022-09-13T07:39:22.894Z,14.02
2022-09-13T07:41:52.067Z,14.28
2022-09-13T07:44:21.051Z,14.43
2022-09-13T07:46:49.824Z,14.57
2022-09-13T07:49:19.930Z,14.77
2022-09-13T07:51:51.471Z,14.94
2022-09-13T07:54:21.920Z,15.13
2022-09-13T07:56:51.982Z,15.15
2022-09-13T07:59:21.011Z,15.24
2022-09-13T08:01:52.267Z,15.37
2022-09-13T08:04:25.489Z,15.56
2022-09-13T08:06:54.620Z,15.80
2022-09-13T08:09:24.694Z,15.93
2022-09-13T08:11:53.944Z,16.03
2022-09-13T08:14:24.439Z,16.15
2022-09-13T08:16:56.968Z,16.37
2022-09-13T08:19:25.876Z,16.67
2022-09-13T08:21:55.432Z,16.95
2022-09-13T08:24:26.932Z,17.25
2022-09-13T08:26:57.662Z,17.47
2022-09-13T08:29:27.263Z,17.70
2022-09-13T08:31:56.058Z,17.98
2022-09-13T08:34:27.636Z,18.16
2022-09-13T08:36:56.452Z,18.43
2022-09-13T08:39:29.271Z,18.57
2022-09-13T08:42:25.918Z,18.81
2022-09-13T08:44:57.895Z,19.06
2022-09-13T08:47:40.306Z,19.26
2022-09-13T08:50:18.494Z,19.49
2022-09-13T08:52:53.582Z,19.79
2022-09-13T08:55:31.499Z,19.94
2022-09-13T08:58:12.967Z,20.07
2022-09-13T09:00:45.437Z,19.97
2022-09-13T09:03:23.445Z,20.02
2022-09-13T09:05:54.478Z,20.09
2022-09-13T09:08:32.370Z,20.27
2022-09-13T09:11:09.240Z,20.48
2022-09-13T09:13:43.061Z,20.64
2022-09-13T09:16:26.833Z,20.63
2022-09-13T09:19:00.235Z,20.89
2022-09-13T09:21:29.151Z,21.13
2022-09-13T09:23:59.498Z,21.25
2022-09-13T09:26:32.503Z,21.24
2022-09-13T09:29:03.325Z,21.31
2022-09-13T09:31:41.226Z,21.32
2022-09-13T09:34:19.355Z,21.35
2022-09-13T09:36:56.037Z,21.25
2022-09-13T09:39:29.948Z,21.35
2022-09-13T09:42:04.487Z,21.50
2022-09-13T09:44:34.721Z,21.80
2022-09-13T09:47:12.113Z,21.71
2022-09-13T09:50:04.449Z,21.52
2022-09-13T09:52:40.204Z,21.54
2022-09-13T09:55:18.303Z,21.60
2022-09-13T09:57:58.005Z,21.77
2022-09-13T10:00:31.492Z,21.95
2022-09-13T10:03:03.551Z,21.93
2022-09-13T10:05:33.605Z,21.90
2022-09-13T10:08:04.087Z,21.80
2022-09-13T10:10:41.767Z,21.60
2022-09-13T10:13:17.558Z,21.28
2022-09-13T10:15:55.482Z,21.16
2022-09-13T10:18:43.354Z,21.01
2022-09-13T10:21:24.138Z,21.05
2022-09-13T10:23:53.543Z,21.02
2022-09-13T10:26:25.750Z,20.99
2022-09-13T10:29:02.290Z,21.10
2022-09-13T10:31:36.717Z,21.05
2022-09-13T10:34:08.539Z,20.90
2022-09-13T10:36:52.896Z,20.94
2022-09-13T10:39:23.816Z,21.26
2022-09-13T10:41:55.863Z,21.45
2022-09-13T10:44:31.346Z,21.44
2022-09-13T10:47:03.213Z,21.11
2022-09-13T10:49:48.655Z,20.74
2022-09-13T10:52:32.915Z,20.45
2022-09-13T10:55:44.033Z,20.26
2022-09-13T10:58:21.208Z,20.17
2022-09-13T11:01:40.774Z,20.31
2022-09-13T11:04:35.295Z,20.68
2022-09-13T11:07:14.434Z,20.79
2022-09-13T11:09:49.145Z,20.93
2022-09-13T11:12:26.131Z,20.98
2022-09-13T11:15:06.526Z,20.92
2022-09-13T11:17:57.347Z,20.96
2022-09-13T11:20:40.153Z,20.93
2022-09-13T11:23:41.824Z,20.68
2022-09-13T11:26:26.930Z,20.42
2022-09-13T11:29:04.939Z,20.28
2022-09-13T11:31:45.014Z,20.18
2022-09-13T11:34:33.458Z,20.06
2022-09-13T11:37:15.133Z,20.00
2022-09-13T11:39:51.546Z,20.10
2022-09-13T11:42:35.899Z,20.23
2022-09-13T11:45:21.917Z,20.33
2022-09-13T11:48:08.026Z,20.41
2022-09-13T11:50:48.195Z,20.41
2022-09-13T11:53:38.496Z,20.40
2022-09-13T11:56:12.498Z,20.32
2022-09-13T11:58:48.831Z,20.35
2022-09-13T12:01:24.442Z,20.30
2022-09-13T12:04:01.114Z,20.20
2022-09-13T12:06:35.422Z,20.15
2022-09-13T12:09:08.833Z,20.06
2022-09-13T12:11:40.379Z,19.95
2022-09-13T12:14:15.782Z,19.83
2022-09-13T12:16:48.902Z,19.68
2022-09-13T12:19:22.433Z,19.54
2022-09-13T12:21:54.186Z,19.48
2022-09-13T12:24:32.031Z,19.49
2022-09-13T12:27:05.672Z,19.46
2022-09-13T12:29:40.003Z,19.45
2022-09-13T12:32:11.962Z,19.47
2022-09-13T12:34:48.763Z,19.53
2022-09-13T12:37:35.426Z,19.65
2022-09-13T12:40:35.317Z,19.83
2022-09-13T12:43:25.695Z,19.96
2022-09-13T12:46:33.595Z,20.08
2022-09-13T12:49:46.210Z,20.10
2022-09-13T12:52:31.941Z,20.03
2022-09-13T12:55:46.113Z,19.99
2022-09-13T12:58:42.567Z,20.09
2022-09-13T13:01:17.118Z,20.25
2022-09-13T13:03:52.884Z,20.33
2022-09-13T13:06:33.642Z,20.34
2022-09-13T13:09:09.004Z,20.32
2022-09-13T13:11:48.311Z,20.34
2022-09-13T13:14:44.190Z,20.59
2022-09-13T13:17:39.610Z,21.10
2022-09-13T13:20:45.192Z,21.51
2022-09-13T13:23:21.940Z,21.37
2022-09-13T13:26:05.801Z,21.09
2022-09-13T13:28:52.932Z,20.77
2022-09-13T13:31:36.652Z,20.56
2022-09-13T13:34:35.305Z,20.39
2022-09-13T13:37:06.194Z,20.31
2022-09-13T13:39:40.346Z,20.19
2022-09-13T13:42:26.429Z,20.02
2022-09-13T13:45:16.329Z,19.95
2022-09-13T13:48:21.028Z,19.91
2022-09-13T13:51:30.065Z,19.93
2022-09-13T13:54:02.945Z,20.11
2022-09-13T13:56:38.401Z,20.32
2022-09-13T13:59:14.963Z,20.32
2022-09-13T14:01:48.854Z,20.34
2022-09-13T14:04:49.101Z,20.27
2022-09-13T14:07:51.088Z,20.24
2022-09-13T14:10:25.681Z,20.19
2022-09-13T14:13:18.885Z,20.16
2022-09-13T14:15:57.779Z,20.10
2022-09-13T14:18:49.111Z,19.93
2022-09-13T14:21:26.518Z,19.77
2022-09-13T14:24:11.277Z,19.65
2022-09-13T14:26:41.206Z,19.56
2022-09-13T14:29:11.545Z,19.46
2022-09-13T14:31:41.548Z,19.36
2022-09-13T14:34:22.006Z,19.30
2022-09-13T14:36:56.075Z,19.22
2022-09-13T14:39:25.040Z,19.18
2022-09-13T14:42:01.684Z,19.16
2022-09-13T14:44:31.537Z,19.14
2022-09-13T14:47:13.653Z,19.13
2022-09-13T14:49:49.287Z,19.07
2022-09-13T14:52:25.634Z,19.03
2022-09-13T14:54:58.119Z,18.97
2022-09-13T14:57:30.651Z,18.95
2022-09-13T15:00:03.518Z,18.90
2022-09-13T15:02:39.112Z,18.84
2022-09-13T15:05:14.513Z,18.76
2022-09-13T15:07:44.489Z,18.68
2022-09-13T15:10:25.601Z,18.60
2022-09-13T15:13:03.837Z,18.54
2022-09-13T15:15:37.877Z,18.50
2022-09-13T15:18:25.286Z,18.50
2022-09-13T15:20:56.546Z,18.45
2022-09-13T15:23:28.406Z,18.39
2022-09-13T15:26:00.331Z,18.37
2022-09-13T15:28:30.327Z,18.33
2022-09-13T15:31:02.365Z,18.36
2022-09-13T15:33:35.711Z,18.38
2022-09-13T15:36:29.106Z,18.39
2022-09-13T15:39:01.064Z,18.35
2022-09-13T15:41:33.244Z,18.32
2022-09-13T15:44:02.173Z,18.31
2022-09-13T15:46:32.030Z,18.31
2022-09-13T15:49:06.107Z,18.27
2022-09-13T15:51:39.049Z,18.30
2022-09-13T15:54:14.141Z,18.27
2022-09-13T15:56:44.896Z,18.19
2022-09-13T15:59:15.770Z,18.12
2022-09-13T16:01:44.779Z,18.10
2022-09-13T16:04:15.071Z,18.05
2022-09-13T16:06:44.395Z,18.01
2022-09-13T16:09:19.720Z,17.95
2022-09-13T16:11:49.897Z,17.87
2022-09-13T16:14:19.787Z,17.79
2022-09-13T16:16:52.456Z,17.74
2022-09-13T16:19:25.495Z,17.68
2022-09-13T16:21:56.154Z,17.63
2022-09-13T16:24:25.018Z,17.57
2022-09-13T16:26:53.840Z,17.52
2022-09-13T16:29:23.217Z,17.47
2022-09-13T16:31:52.680Z,17.40
2022-09-13T16:34:23.423Z,17.35
2022-09-13T16:36:52.292Z,17.32
2022-09-13T16:39:21.560Z,17.27
2022-09-13T16:41:50.093Z,17.23
2022-09-13T16:44:19.009Z,17.20
2022-09-13T16:46:47.952Z,17.16
2022-09-13T16:49:16.711Z,17.13
2022-09-13T16:51:46.719Z,17.08
2022-09-13T16:54:15.258Z,17.03
2022-09-13T16:56:45.241Z,16.98
2022-09-13T16:59:14.531Z,16.92
2022-09-13T17:01:51.733Z,16.83
2022-09-13T17:04:21.127Z,16.74
2022-09-13T17:06:51.621Z,16.66
2022-09-13T17:09:22.776Z,16.58
2022-09-13T17:11:52.864Z,16.51
2022-09-13T17:14:22.711Z,16.45
2022-09-13T17:16:54.739Z,16.42
2022-09-13T17:19:27.163Z,16.39
2022-09-13T17:21:57.758Z,16.34
2022-09-13T17:24:27.300Z,16.33
2022-09-13T17:26:58.052Z,16.32
2022-09-13T17:29:31.096Z,16.31
2022-09-13T17:32:00.947Z,16.32
2022-09-13T17:34:30.857Z,16.33
2022-09-13T17:37:00.945Z,16.29
2022-09-13T17:39:29.435Z,16.26
2022-09-13T17:41:58.224Z,16.25
2022-09-13T17:44:27.384Z,16.20
2022-09-13T17:46:56.119Z,16.16
2022-09-13T17:49:24.730Z,16.12
2022-09-13T17:51:53.033Z,16.09
2022-09-13T17:54:23.360Z,16.04
2022-09-13T17:56:52.433Z,16.01
2022-09-13T17:59:22.915Z,15.99
2022-09-13T18:01:53.639Z,15.98
2022-09-13T18:04:25.028Z,15.95
2022-09-13T18:06:56.253Z,15.94
2022-09-13T18:09:27.280Z,15.89
2022-09-13T18:11:56.584Z,15.87
2022-09-13T18:14:27.857Z,15.86
2022-09-13T18:16:58.181Z,15.83
2022-09-13T18:19:44.921Z,15.82
2022-09-13T18:22:15.229Z,15.80
2022-09-13T18:24:47.197Z,15.81
2022-09-13T18:27:16.691Z,15.84
2022-09-13T18:29:45.781Z,15.88
2022-09-13T18:32:14.396Z,15.86
2022-09-13T18:34:44.381Z,15.88
2022-09-13T18:37:12.933Z,15.91
2022-09-13T18:39:42.844Z,15.91
2022-09-13T18:42:13.344Z,15.91
2022-09-13T18:44:43.379Z,15.92
2022-09-13T18:47:13.251Z,15.91
2022-09-13T18:49:41.791Z,15.89
2022-09-13T18:52:11.254Z,15.95
2022-09-13T18:54:39.748Z,15.96
2022-09-13T18:57:08.556Z,15.94
2022-09-13T18:59:38.839Z,15.85
2022-09-13T19:02:10.647Z,15.81
2022-09-13T19:04:39.275Z,15.80
2022-09-13T19:07:08.551Z,15.77
2022-09-13T19:09:37.436Z,15.75
2022-09-13T19:12:06.466Z,15.77
2022-09-13T19:14:35.438Z,15.76
2022-09-13T19:17:05.540Z,15.77
2022-09-13T19:19:35.626Z,15.80
2022-09-13T19:22:04.251Z,15.80
2022-09-13T19:24:33.886Z,15.77
2022-09-13T19:27:02.752Z,15.77
2022-09-13T19:29:31.797Z,15.74
2022-09-13T19:32:00.950Z,15.72
2022-09-13T19:34:33.264Z,15.71
2022-09-13T19:37:02.535Z,15.72
2022-09-13T19:39:31.541Z,15.75
2022-09-13T19:42:02.000Z,15.73
2022-09-13T19:44:31.253Z,15.75
2022-09-13T19:49:50.862Z,15.80
2022-09-13T19:52:19.550Z,15.86
2022-09-13T19:54:48.287Z,15.83
2022-09-13T19:57:16.862Z,15.83
2022-09-13T19:59:45.612Z,15.86
2022-09-13T20:02:13.997Z,15.86
2022-09-13T20:04:43.104Z,15.89
2022-09-13T20:07:14.504Z,15.95
2022-09-13T20:09:46.958Z,16.00
2022-09-13T20:12:15.937Z,16.01
2022-09-13T20:14:45.090Z,16.06
2022-09-13T20:17:13.556Z,16.10
2022-09-13T20:19:46.433Z,16.12
2022-09-13T20:22:19.845Z,16.15
2022-09-13T20:24:48.870Z,16.18
2022-09-13T20:27:17.267Z,16.20
2022-09-13T20:29:45.602Z,16.23
2022-09-13T20:32:14.521Z,16.23
2022-09-13T20:34:42.931Z,16.30
2022-09-13T20:37:11.666Z,16.31
2022-09-13T20:39:41.559Z,16.30
2022-09-13T20:42:10.127Z,16.32
2022-09-13T20:44:41.114Z,16.33
2022-09-13T20:47:09.986Z,16.34
2022-09-13T20:49:38.473Z,16.28
2022-09-13T20:52:07.007Z,16.25
2022-09-13T20:54:36.658Z,16.21
2022-09-13T20:57:07.348Z,16.22
2022-09-13T20:59:36.058Z,16.21
2022-09-13T21:02:04.613Z,16.21
2022-09-13T21:04:33.177Z,16.20
2022-09-13T21:07:24.413Z,16.16
2022-09-13T21:09:52.864Z,16.12
2022-09-13T21:12:24.567Z,16.10
2022-09-13T21:14:52.815Z,16.06
2022-09-13T21:17:21.383Z,16.03
2022-09-13T21:19:49.553Z,16.01
2022-09-13T21:22:18.078Z,16.00
2022-09-13T21:24:47.563Z,15.97
2022-09-13T21:27:15.958Z,15.95
2022-09-13T21:29:45.678Z,15.95
2022-09-13T21:32:14.616Z,15.94
2022-09-13T21:34:43.570Z,15.93
2022-09-13T21:37:13.045Z,15.89
2022-09-13T21:39:41.730Z,15.88
2022-09-13T21:42:10.538Z,15.91
2022-09-13T21:44:39.955Z,15.96
2022-09-13T21:47:10.498Z,16.04
2022-09-13T21:49:38.988Z,16.11
2022-09-13T21:52:07.998Z,16.20
2022-09-13T21:54:36.777Z,16.25
2022-09-13T21:57:05.485Z,16.26
2022-09-13T21:59:33.935Z,16.26
2022-09-13T22:02:02.440Z,16.25
2022-09-13T22:04:33.206Z,16.22
2022-09-13T22:07:01.454Z,16.16
2022-09-13T22:09:29.689Z,16.14
2022-09-13T22:11:59.241Z,16.08
2022-09-13T22:14:27.531Z,16.05
2022-09-13T22:16:56.081Z,15.99
2022-09-13T22:19:27.004Z,15.97
2022-09-13T22:21:59.196Z,15.95
2022-09-13T22:24:29.500Z,15.92
2022-09-13T22:26:59.344Z,15.90
2022-09-13T22:29:28.738Z,15.88
2022-09-13T22:31:57.737Z,15.84
2022-09-13T22:34:31.059Z,15.81
2022-09-13T22:37:01.337Z,15.78
2022-09-13T22:39:30.539Z,15.80
2022-09-13T22:41:58.924Z,15.77
2022-09-13T22:44:27.715Z,15.74
2022-09-13T22:46:56.306Z,15.75
2022-09-13T22:49:25.309Z,15.73
2022-09-13T22:51:54.103Z,15.74
2022-09-13T22:54:24.665Z,15.72
2022-09-13T22:56:53.128Z,15.71
2022-09-13T22:59:22.583Z,15.72
2022-09-13T23:01:51.647Z,15.71
2022-09-13T23:04:20.282Z,15.71
2022-09-13T23:06:48.901Z,15.70
2022-09-13T23:09:19.544Z,15.69
2022-09-13T23:11:49.762Z,15.67
2022-09-13T23:14:20.581Z,15.66
2022-09-13T23:16:51.358Z,15.63
2022-09-13T23:19:22.615Z,15.60
2022-09-13T23:21:53.390Z,15.56
2022-09-13T23:24:24.370Z,15.50
2022-09-13T23:26:56.009Z,15.46
2022-09-13T23:29:24.873Z,15.39
2022-09-13T23:31:55.181Z,15.33
2022-09-13T23:34:23.805Z,15.29
2022-09-13T23:36:52.599Z,15.22
2022-09-13T23:39:21.865Z,15.20
2022-09-13T23:41:51.117Z,15.17
2022-09-13T23:44:21.144Z,15.17
2022-09-13T23:46:49.546Z,15.15
2022-09-13T23:49:18.475Z,15.12
2022-09-13T23:51:47.325Z,15.12
2022-09-13T23:54:16.345Z,15.09
2022-09-13T23:56:45.599Z,15.08
2022-09-13T23:59:14.646Z,15.09
